Time;durP1;ratioP1;P1;durP2;ratioP2;P2;SDS_P1;SDS_P2;PMS_P1;PMS_P2;Temp;Humidity;BMP_temperature;BMP_pressure;BME280_temperature;BME280_humidity;BME280_pressure;Samples;Min_cycle;Max_cycle;Signal;HPM_P1;HPM_P2
2022/07/27 00:00:51;;;;;;;2.65;0.90;;;;;;;;;;5084403;28;20490;-83
2022/07/27 00:03:17;;;;;;;1.60;0.70;;;;;;;;;;5082937;28;20028;-85
2022/07/27 00:05:43;;;;;;;1.83;0.75;;;;;;;;;;5068890;28;20128;-83
2022/07/27 00:08:09;;;;;;;1.75;0.77;;;;;;;;;;5083529;28;20029;-83
2022/07/27 00:10:35;;;;;;;1.92;1.00;;;;;;;;;;5084007;28;20041;-81
2022/07/27 00:13:02;;;;;;;2.35;0.95;;;;;;;;;;5083780;28;20035;-82
2022/07/27 00:15:28;;;;;;;2.15;0.70;;;;;;;;;;5070416;28;20037;-82
2022/07/27 00:17:55;;;;;;;1.38;0.70;;;;;;;;;;5087143;28;20628;-81
2022/07/27 00:20:21;;;;;;;1.98;1.00;;;;;;;;;;5088255;28;20094;-81
2022/07/27 00:22:47;;;;;;;3.95;0.88;;;;;;;;;;5070893;28;20029;-80
2022/07/27 00:25:13;;;;;;;3.13;0.80;;;;;;;;;;5086736;28;20041;-81
2022/07/27 00:27:39;;;;;;;2.60;0.82;;;;;;;;;;5088037;28;20482;-86
2022/07/27 00:30:05;;;;;;;2.85;0.90;;;;;;;;;;5087850;28;20064;-84
2022/07/27 00:32:31;;;;;;;1.50;0.73;;;;;;;;;;5087813;28;20028;-85
2022/07/27 00:34:57;;;;;;;2.67;0.70;;;;;;;;;;5072502;28;20039;-81
2022/07/27 00:37:23;;;;;;;1.80;0.80;;;;;;;;;;5072333;28;20545;-84
2022/07/27 00:39:49;;;;;;;2.45;0.80;;;;;;;;;;5072096;28;20394;-84
2022/07/27 00:42:15;;;;;;;2.50;0.82;;;;;;;;;;5071550;28;20041;-86
2022/07/27 00:44:41;;;;;;;2.30;0.70;;;;;;;;;;5072557;28;20040;-80
2022/07/27 00:47:07;;;;;;;2.92;0.90;;;;;;;;;;5088054;28;20033;-85
2022/07/27 00:49:33;;;;;;;2.13;0.70;;;;;;;;;;5072176;28;20064;-84
2022/07/27 00:51:59;;;;;;;2.17;0.90;;;;;;;;;;5087109;28;20493;-83
2022/07/27 00:54:25;;;;;;;1.45;0.70;;;;;;;;;;5085845;28;20039;-86
2022/07/27 00:56:55;;;;;;;2.53;0.70;;;;;;;;;;5087554;28;20072;-89
2022/07/27 00:59:21;;;;;;;1.80;0.85;;;;;;;;;;5070831;28;20119;-85
2022/07/27 01:01:47;;;;;;;2.42;0.80;;;;;;;;;;5083968;28;20276;-84
2022/07/27 01:04:12;;;;;;;3.15;0.85;;;;;;;;;;5081805;28;20076;-81
2022/07/27 01:06:41;;;;;;;2.78;0.63;;;;;;;;;;5082297;28;20048;-86
2022/07/27 01:11:52;;;;;;;2.70;0.82;;;;;;;;;;5072207;28;20040;-83
2022/07/27 01:14:18;;;;;;;4.60;0.85;;;;;;;;;;5086454;28;20028;-84
2022/07/27 01:16:44;;;;;;;1.13;0.80;;;;;;;;;;5087295;28;20123;-81
2022/07/27 01:19:11;;;;;;;3.33;0.90;;;;;;;;;;5070392;28;20048;-81
2022/07/27 01:21:37;;;;;;;1.77;0.68;;;;;;;;;;5071397;28;20174;-83
2022/07/27 01:24:04;;;;;;;1.55;0.80;;;;;;;;;;5085622;28;20043;-84
2022/07/27 01:26:30;;;;;;;2.72;0.80;;;;;;;;;;5086844;28;20479;-83
2022/07/27 01:28:57;;;;;;;2.13;0.80;;;;;;;;;;5085457;28;20043;-81
2022/07/27 01:31:23;;;;;;;2.30;1.02;;;;;;;;;;5087118;28;20040;-83
2022/07/27 01:33:49;;;;;;;2.90;1.08;;;;;;;;;;5062249;28;20036;-85
2022/07/27 01:36:15;;;;;;;2.60;0.80;;;;;;;;;;5053611;28;20474;-84
2022/07/27 01:38:41;;;;;;;2.40;0.80;;;;;;;;;;5070462;28;20021;-81
2022/07/27 01:41:07;;;;;;;2.05;0.80;;;;;;;;;;5071218;28;20036;-84
2022/07/27 01:43:33;;;;;;;2.00;1.10;;;;;;;;;;5070298;28;20104;-86
2022/07/27 01:45:59;;;;;;;2.15;0.90;;;;;;;;;;5085996;28;20048;-86
2022/07/27 01:48:25;;;;;;;2.92;1.10;;;;;;;;;;5085758;28;20064;-83
2022/07/27 01:50:52;;;;;;;2.90;0.77;;;;;;;;;;5085945;28;20037;-82
2022/07/27 01:53:19;;;;;;;2.03;0.82;;;;;;;;;;5071093;28;20040;-86
2022/07/27 01:55:45;;;;;;;1.50;0.70;;;;;;;;;;5071452;28;20429;-87
2022/07/27 01:58:11;;;;;;;3.60;0.82;;;;;;;;;;5058473;28;20119;-81
2022/07/27 02:00:37;;;;;;;3.03;0.80;;;;;;;;;;5070854;28;20029;-83
2022/07/27 02:03:03;;;;;;;5.07;1.20;;;;;;;;;;5086825;28;20128;-81
2022/07/27 02:05:29;;;;;;;1.45;0.90;;;;;;;;;;5086226;28;20090;-83
2022/07/27 02:07:55;;;;;;;4.63;1.15;;;;;;;;;;5085990;28;20032;-81
2022/07/27 02:10:22;;;;;;;2.85;1.00;;;;;;;;;;5085851;28;20037;-85
2022/07/27 02:12:48;;;;;;;1.55;0.90;;;;;;;;;;5085201;28;20081;-82
2022/07/27 02:15:18;;;;;;;1.88;0.82;;;;;;;;;;5069985;28;20049;-84
2022/07/27 02:17:43;;;;;;;2.13;0.85;;;;;;;;;;5085891;28;20389;-83
2022/07/27 02:20:10;;;;;;;7.18;1.10;;;;;;;;;;5085171;28;20039;-83
2022/07/27 02:22:36;;;;;;;3.65;1.08;;;;;;;;;;5070194;28;20044;-82
2022/07/27 02:25:02;;;;;;;3.80;1.13;;;;;;;;;;5084284;28;20052;-83
2022/07/27 02:27:29;;;;;;;1.98;0.90;;;;;;;;;;5069655;28;20036;-85
2022/07/27 02:29:56;;;;;;;2.53;1.02;;;;;;;;;;5085466;28;20040;-86
2022/07/27 02:32:22;;;;;;;3.35;1.10;;;;;;;;;;5085024;28;20505;-83
2022/07/27 02:34:48;;;;;;;2.83;1.20;;;;;;;;;;5069592;28;20037;-81
2022/07/27 02:37:14;;;;;;;3.92;1.05;;;;;;;;;;5070091;28;20048;-83
2022/07/27 02:39:40;;;;;;;2.85;1.17;;;;;;;;;;5068709;28;20029;-84
2022/07/27 02:42:06;;;;;;;2.70;0.90;;;;;;;;;;5085244;28;20032;-84
2022/07/27 02:44:33;;;;;;;2.65;1.05;;;;;;;;;;5068566;28;20036;-81
2022/07/27 02:46:59;;;;;;;3.28;1.10;;;;;;;;;;5069626;28;20570;-87
2022/07/27 02:49:25;;;;;;;2.92;1.33;;;;;;;;;;5060440;28;20123;-82
2022/07/27 02:51:51;;;;;;;2.03;0.80;;;;;;;;;;5085018;28;20040;-85
2022/07/27 02:54:23;;;;;;;3.65;1.02;;;;;;;;;;5084338;28;20078;-82
2022/07/27 02:56:49;;;;;;;2.38;1.27;;;;;;;;;;5085318;28;20045;-81
2022/07/27 02:59:17;;;;;;;1.52;1.20;;;;;;;;;;5083695;28;20120;-83
2022/07/27 03:01:43;;;;;;;3.38;1.00;;;;;;;;;;5084966;28;20037;-81
2022/07/27 03:04:09;;;;;;;3.10;1.38;;;;;;;;;;5084998;28;20064;-84
2022/07/27 03:06:35;;;;;;;2.20;1.17;;;;;;;;;;5069851;28;20061;-84
2022/07/27 03:09:01;;;;;;;2.20;1.05;;;;;;;;;;5084679;28;20494;-82
2022/07/27 03:11:27;;;;;;;1.92;0.93;;;;;;;;;;5069223;28;20052;-81
2022/07/27 03:13:53;;;;;;;5.22;1.42;;;;;;;;;;5051371;28;20540;-82
2022/07/27 03:16:19;;;;;;;2.67;1.27;;;;;;;;;;5084589;28;20117;-84
2022/07/27 03:18:45;;;;;;;2.85;1.17;;;;;;;;;;5054480;28;20586;-81
2022/07/27 03:21:12;;;;;;;3.30;1.00;;;;;;;;;;5064501;28;20494;-80
2022/07/27 03:23:37;;;;;;;3.88;1.00;;;;;;;;;;5064430;28;20033;-82
2022/07/27 03:26:03;;;;;;;4.35;1.10;;;;;;;;;;5064420;28;20049;-82
2022/07/27 03:28:29;;;;;;;4.32;1.30;;;;;;;;;;5064727;28;20036;-81
2022/07/27 03:30:59;;;;;;;1.50;0.93;;;;;;;;;;5063629;28;20029;-86
2022/07/27 03:33:28;;;;;;;4.85;1.20;;;;;;;;;;5031189;28;20073;-82
2022/07/27 03:35:54;;;;;;;1.73;1.20;;;;;;;;;;5064011;28;20041;-81
2022/07/27 03:38:26;;;;;;;2.25;1.20;;;;;;;;;;5065215;28;20056;-82
2022/07/27 03:40:52;;;;;;;1.85;1.02;;;;;;;;;;5048641;28;20044;-81
2022/07/27 03:43:18;;;;;;;5.25;1.38;;;;;;;;;;5048637;28;20395;-82
2022/07/27 03:45:44;;;;;;;2.92;1.02;;;;;;;;;;5064094;28;20068;-81
2022/07/27 03:48:10;;;;;;;2.08;1.20;;;;;;;;;;5066065;28;20060;-81
2022/07/27 03:50:36;;;;;;;2.35;0.93;;;;;;;;;;5052473;28;20451;-81
2022/07/27 03:53:02;;;;;;;2.22;1.10;;;;;;;;;;5069254;28;20056;-82
2022/07/27 03:55:28;;;;;;;1.95;1.00;;;;;;;;;;5069643;28;20041;-81
2022/07/27 03:57:54;;;;;;;2.83;1.27;;;;;;;;;;5069637;28;20029;-81
2022/07/27 04:00:21;;;;;;;2.25;1.23;;;;;;;;;;5071389;28;20037;-82
2022/07/27 04:02:47;;;;;;;5.05;1.00;;;;;;;;;;5055202;28;20104;-80
2022/07/27 04:05:13;;;;;;;4.40;1.42;;;;;;;;;;5071924;28;20033;-81
2022/07/27 04:07:39;;;;;;;2.42;1.25;;;;;;;;;;5070365;28;20040;-81
2022/07/27 04:10:06;;;;;;;2.63;1.20;;;;;;;;;;5069474;28;20033;-81
2022/07/27 04:12:35;;;;;;;2.65;1.10;;;;;;;;;;5070394;28;20025;-84
2022/07/27 04:15:01;;;;;;;2.67;1.20;;;;;;;;;;5071093;28;20044;-83
2022/07/27 04:17:26;;;;;;;1.60;1.20;;;;;;;;;;5074225;28;20040;-84
2022/07/27 04:19:52;;;;;;;1.77;1.10;;;;;;;;;;5100548;28;20039;-84
2022/07/27 04:22:18;;;;;;;2.47;1.30;;;;;;;;;;5075441;28;20035;-84
2022/07/27 04:24:44;;;;;;;3.03;1.00;;;;;;;;;;5074000;28;20116;-82
2022/07/27 04:27:10;;;;;;;2.92;1.17;;;;;;;;;;5088952;28;20072;-82
2022/07/27 04:29:36;;;;;;;2.20;1.50;;;;;;;;;;5088775;28;20033;-83
2022/07/27 04:32:05;;;;;;;2.88;1.40;;;;;;;;;;5088703;28;20129;-82
2022/07/27 04:34:31;;;;;;;;;;;;;;;;;;5089389;28;20560;-81
2022/07/27 04:36:57;;;;;;;2.45;1.17;;;;;;;;;;5073449;28;19908;-81
2022/07/27 04:39:23;;;;;;;2.13;1.20;;;;;;;;;;5087384;28;20059;-81
2022/07/27 04:41:49;;;;;;;3.63;1.40;;;;;;;;;;5074920;28;20024;-83
2022/07/27 04:44:15;;;;;;;2.25;1.20;;;;;;;;;;5074796;28;20088;-85
2022/07/27 04:46:41;;;;;;;3.25;1.55;;;;;;;;;;5059346;28;20482;-82
2022/07/27 04:49:07;;;;;;;2.30;1.20;;;;;;;;;;5096768;28;20036;-84
2022/07/27 04:51:34;;;;;;;2.17;1.20;;;;;;;;;;5061401;28;20033;-81
2022/07/27 04:54:00;;;;;;;3.90;1.60;;;;;;;;;;5087680;28;20120;-81
2022/07/27 04:56:26;;;;;;;1.83;1.33;;;;;;;;;;5073633;28;20115;-82
2022/07/27 04:58:52;;;;;;;3.20;1.60;;;;;;;;;;5090389;28;20033;-82
2022/07/27 05:01:18;;;;;;;2.20;1.35;;;;;;;;;;5073188;28;20494;-82
2022/07/27 05:03:44;;;;;;;3.60;1.50;;;;;;;;;;5089926;28;20044;-82
2022/07/27 05:06:10;;;;;;;4.47;2.03;;;;;;;;;;5089189;28;20056;-84
2022/07/27 05:08:36;;;;;;;3.40;1.60;;;;;;;;;;5089541;28;20056;-80
2022/07/27 05:11:02;;;;;;;4.18;1.40;;;;;;;;;;5074593;28;20037;-83
2022/07/27 05:13:28;;;;;;;2.13;1.50;;;;;;;;;;5073954;28;20434;-84
2022/07/27 05:15:54;;;;;;;3.15;1.70;;;;;;;;;;5089930;28;20032;-82
2022/07/27 05:18:20;;;;;;;2.53;1.58;;;;;;;;;;5085806;28;20072;-87
2022/07/27 05:20:46;;;;;;;2.50;1.50;;;;;;;;;;5086841;28;20033;-84
2022/07/27 05:23:12;;;;;;;2.75;1.70;;;;;;;;;;5085811;28;20037;-81
2022/07/27 05:25:38;;;;;;;2.33;1.60;;;;;;;;;;5055060;28;20049;-83
2022/07/27 05:28:04;;;;;;;5.97;1.70;;;;;;;;;;5053617;28;20064;-84
2022/07/27 05:30:30;;;;;;;3.30;1.55;;;;;;;;;;5086465;28;20124;-85
2022/07/27 05:32:56;;;;;;;3.83;1.83;;;;;;;;;;5086128;28;20479;-87
2022/07/27 05:35:22;;;;;;;2.30;1.60;;;;;;;;;;5086146;28;20052;-86
2022/07/27 05:37:48;;;;;;;2.75;1.70;;;;;;;;;;5054196;28;20106;-82
2022/07/27 05:40:14;;;;;;;3.35;1.70;;;;;;;;;;5066209;28;20045;-81
2022/07/27 05:42:43;;;;;;;2.95;1.70;;;;;;;;;;5056301;28;20566;-81
2022/07/27 05:45:10;;;;;;;3.03;1.58;;;;;;;;;;5055800;28;20033;-82
2022/07/27 05:47:36;;;;;;;3.42;1.90;;;;;;;;;;5085280;28;20164;-84
2022/07/27 05:50:02;;;;;;;4.53;1.67;;;;;;;;;;5068755;28;20033;-85
2022/07/27 05:52:28;;;;;;;4.55;1.70;;;;;;;;;;5085544;28;20493;-85
2022/07/27 05:54:54;;;;;;;3.13;1.65;;;;;;;;;;5054538;28;20037;-83
2022/07/27 05:57:20;;;;;;;6.60;2.13;;;;;;;;;;5088647;28;20390;-88
2022/07/27 05:59:46;;;;;;;4.28;1.80;;;;;;;;;;5053641;28;20032;-85
2022/07/27 06:02:12;;;;;;;4.03;1.50;;;;;;;;;;5086070;28;20036;-81
2022/07/27 06:04:38;;;;;;;4.20;1.42;;;;;;;;;;5053311;28;20406;-82
2022/07/27 06:09:49;;;;;;;2.33;1.13;;;;;;;;;;5053105;28;20044;-86
2022/07/27 06:12:15;;;;;;;1.70;1.08;;;;;;;;;;5052958;28;20037;-82
2022/07/27 06:14:41;;;;;;;4.45;1.30;;;;;;;;;;5071138;28;20364;-85
2022/07/27 06:17:07;;;;;;;3.97;1.33;;;;;;;;;;5062511;28;20040;-87
2022/07/27 06:19:33;;;;;;;3.60;1.35;;;;;;;;;;5073314;28;20040;-85
2022/07/27 06:21:59;;;;;;;1.45;1.00;;;;;;;;;;5054177;28;20055;-81
2022/07/27 06:24:25;;;;;;;2.53;1.27;;;;;;;;;;5096013;28;20474;-84
2022/07/27 06:26:51;;;;;;;2.65;1.20;;;;;;;;;;5074794;28;20450;-84
2022/07/27 06:29:17;;;;;;;4.07;1.50;;;;;;;;;;5065922;28;20422;-86
2022/07/27 06:31:43;;;;;;;4.25;1.23;;;;;;;;;;5086275;28;20060;-87
2022/07/27 06:34:08;;;;;;;2.55;1.10;;;;;;;;;;5052449;28;20020;-88
2022/07/27 06:36:34;;;;;;;2.45;1.20;;;;;;;;;;5053137;28;20538;-86
2022/07/27 06:39:00;;;;;;;4.28;1.15;;;;;;;;;;5052664;28;20482;-86
2022/07/27 06:41:26;;;;;;;2.00;1.10;;;;;;;;;;5069959;28;21072;-81
2022/07/27 06:43:52;;;;;;;2.47;1.10;;;;;;;;;;5086401;28;20025;-84
2022/07/27 06:46:18;;;;;;;3.13;1.08;;;;;;;;;;5085838;28;20620;-81
2022/07/27 06:48:44;;;;;;;3.05;1.20;;;;;;;;;;5086628;28;20474;-81
2022/07/27 06:51:10;;;;;;;4.32;1.30;;;;;;;;;;5069199;28;20479;-81
2022/07/27 06:53:36;;;;;;;2.17;1.05;;;;;;;;;;5073151;28;20025;-72
2022/07/27 06:56:03;;;;;;;3.25;1.00;;;;;;;;;;5070286;28;20036;-88
2022/07/27 06:58:32;;;;;;;4.68;1.40;;;;;;;;;;5085928;28;20028;-84
2022/07/27 07:01:00;;;;;;;3.70;1.05;;;;;;;;;;5070879;28;20135;-88
2022/07/27 07:03:27;;;;;;;3.63;0.90;;;;;;;;;;5087337;28;20478;-82
2022/07/27 07:05:53;;;;;;;4.10;2.03;;;;;;;;;;5088678;28;20131;-87
2022/07/27 07:08:20;;;;;;;3.75;1.27;;;;;;;;;;5086855;28;20140;-85
2022/07/27 07:10:46;;;;;;;2.63;1.15;;;;;;;;;;5087122;28;20367;-83
2022/07/27 07:13:12;;;;;;;1.77;0.80;;;;;;;;;;5072559;28;20055;-85
2022/07/27 07:15:39;;;;;;;4.03;1.35;;;;;;;;;;5087993;28;20489;-88
2022/07/27 07:18:06;;;;;;;2.80;1.10;;;;;;;;;;5072552;28;20049;-87
2022/07/27 07:20:35;;;;;;;3.25;1.10;;;;;;;;;;5087899;28;20477;-80
2022/07/27 07:23:01;;;;;;;2.92;1.23;;;;;;;;;;5102074;28;20086;-90
2022/07/27 07:25:27;;;;;;;3.28;0.80;;;;;;;;;;5055207;28;20090;-80
2022/07/27 07:27:54;;;;;;;2.05;1.13;;;;;;;;;;5068114;28;20025;-89
2022/07/27 07:30:20;;;;;;;2.95;0.88;;;;;;;;;;5059702;28;20045;-89
2022/07/27 07:32:46;;;;;;;3.53;1.10;;;;;;;;;;5079101;28;20060;-87
2022/07/27 07:35:12;;;;;;;3.10;1.17;;;;;;;;;;5074990;28;20498;-82
2022/07/27 07:37:38;;;;;;;3.13;0.88;;;;;;;;;;5077809;28;20535;-81
2022/07/27 07:40:05;;;;;;;3.42;1.10;;;;;;;;;;5055735;28;20044;-80
2022/07/27 07:42:31;;;;;;;2.80;0.88;;;;;;;;;;5071052;28;20036;-80
2022/07/27 07:44:57;;;;;;;3.35;1.20;;;;;;;;;;5052972;28;20485;-80
2022/07/27 07:47:23;;;;;;;2.05;0.90;;;;;;;;;;5070166;28;20108;-80
2022/07/27 07:49:50;;;;;;;2.33;0.98;;;;;;;;;;5086803;28;20021;-81
2022/07/27 07:52:16;;;;;;;1.38;0.93;;;;;;;;;;5073455;28;20036;-81
2022/07/27 07:54:42;;;;;;;2.90;0.85;;;;;;;;;;5053197;28;20029;-81
2022/07/27 07:57:08;;;;;;;1.08;0.50;;;;;;;;;;5052913;28;20039;-81
2022/07/27 07:59:34;;;;;;;1.20;0.65;;;;;;;;;;5070880;28;20107;-81
2022/07/27 08:02:03;;;;;;;3.03;0.90;;;;;;;;;;5071302;28;20025;-79
2022/07/27 08:04:29;;;;;;;2.47;0.70;;;;;;;;;;5081156;28;20055;-81
2022/07/27 08:06:55;;;;;;;2.13;0.82;;;;;;;;;;5052394;28;20063;-83
2022/07/27 08:09:25;;;;;;;2.67;0.68;;;;;;;;;;5051490;28;20482;-84
2022/07/27 08:11:51;;;;;;;1.85;0.70;;;;;;;;;;5084993;28;20036;-80
2022/07/27 08:14:17;;;;;;;1.33;0.70;;;;;;;;;;5068911;28;20052;-80
2022/07/27 08:16:43;;;;;;;3.35;0.88;;;;;;;;;;5087641;28;20040;-80
2022/07/27 08:19:09;;;;;;;2.17;0.70;;;;;;;;;;5070176;28;20048;-80
2022/07/27 08:21:35;;;;;;;3.25;0.52;;;;;;;;;;5071047;28;20040;-83
2022/07/27 08:24:01;;;;;;;2.60;0.80;;;;;;;;;;5051964;28;20040;-81
2022/07/27 08:26:27;;;;;;;3.47;0.70;;;;;;;;;;5086760;28;20052;-80
2022/07/27 08:28:53;;;;;;;2.03;0.85;;;;;;;;;;5086173;28;20626;-81
2022/07/27 08:31:19;;;;;;;3.33;0.82;;;;;;;;;;5071492;28;20127;-81
2022/07/27 08:33:44;;;;;;;1.23;0.57;;;;;;;;;;5086097;28;20036;-80
2022/07/27 08:36:10;;;;;;;4.30;0.80;;;;;;;;;;5082865;28;20120;-81
2022/07/27 08:38:36;;;;;;;2.40;0.73;;;;;;;;;;5089827;28;20074;-81
2022/07/27 08:41:03;;;;;;;1.98;0.90;;;;;;;;;;5090893;28;20033;-80
2022/07/27 08:43:30;;;;;;;1.75;0.70;;;;;;;;;;5076884;28;20479;-80
2022/07/27 08:45:57;;;;;;;1.85;0.60;;;;;;;;;;5058190;28;20040;-82
2022/07/27 08:48:27;;;;;;;2.13;0.60;;;;;;;;;;5094893;28;20037;-85
2022/07/27 08:50:53;;;;;;;2.83;0.60;;;;;;;;;;5073837;28;20032;-82
2022/07/27 08:53:20;;;;;;;1.33;0.52;;;;;;;;;;5057353;28;20024;-80
2022/07/27 08:55:47;;;;;;;3.10;0.75;;;;;;;;;;5073372;28;20035;-83
2022/07/27 08:58:13;;;;;;;1.50;0.60;;;;;;;;;;5092300;28;20028;-83
2022/07/27 09:00:41;;;;;;;2.38;0.85;;;;;;;;;;5089363;28;20042;-82
2022/07/27 09:03:09;;;;;;;2.30;0.70;;;;;;;;;;5056359;28;20436;-82
2022/07/27 09:05:41;;;;;;;1.73;0.80;;;;;;;;;;5088061;28;20048;-81
2022/07/27 09:08:13;;;;;;;2.53;0.57;;;;;;;;;;5073222;28;20277;-82
2022/07/27 09:10:39;;;;;;;1.88;0.50;;;;;;;;;;5055599;28;20074;-80
2022/07/27 09:13:17;;;;;;;1.73;0.50;;;;;;;;;;5054571;28;20035;-82
2022/07/27 09:16:03;;;;;;;0.55;0.38;;;;;;;;;;5075037;28;20047;-81
2022/07/27 09:18:30;;;;;;;1.40;0.60;;;;;;;;;;5071089;28;20048;-80
2022/07/27 09:21:11;;;;;;;1.77;0.50;;;;;;;;;;5056074;28;20033;-81
2022/07/27 09:23:38;;;;;;;1.52;0.60;;;;;;;;;;5053306;28;20411;-83
2022/07/27 09:26:10;;;;;;;1.95;0.50;;;;;;;;;;5073335;28;20482;-81
2022/07/27 09:28:40;;;;;;;3.10;0.55;;;;;;;;;;5086532;28;20380;-83
2022/07/27 09:31:07;;;;;;;2.45;0.52;;;;;;;;;;5072847;28;20040;-85
2022/07/27 09:33:46;;;;;;;3.72;0.70;;;;;;;;;;5072515;28;20039;-85
2022/07/27 09:36:12;;;;;;;1.65;0.50;;;;;;;;;;5087898;28;20028;-85
2022/07/27 09:38:49;;;;;;;2.20;0.50;;;;;;;;;;5074088;28;20067;-88
2022/07/27 09:41:15;;;;;;;2.95;0.73;;;;;;;;;;5089456;28;20421;-81
2022/07/27 09:43:46;;;;;;;1.48;0.60;;;;;;;;;;5088973;28;20394;-81
2022/07/27 09:46:12;;;;;;;0.93;0.50;;;;;;;;;;5089039;28;20048;-80
2022/07/27 09:48:38;;;;;;;2.10;0.50;;;;;;;;;;5072570;28;20549;-81
2022/07/27 09:51:06;;;;;;;0.85;0.43;;;;;;;;;;5091867;28;20045;-80
2022/07/27 09:53:33;;;;;;;1.33;0.60;;;;;;;;;;5082742;28;20044;-81
2022/07/27 09:56:02;;;;;;;1.63;0.50;;;;;;;;;;5055886;28;20501;-86
2022/07/27 09:58:47;;;;;;;0.63;0.40;;;;;;;;;;5089190;28;20032;-80
2022/07/27 10:01:18;;;;;;;1.65;0.68;;;;;;;;;;5073932;28;20391;-85
2022/07/27 10:03:44;;;;;;;1.85;0.60;;;;;;;;;;5086647;28;20089;-81
2022/07/27 10:06:11;;;;;;;1.40;0.60;;;;;;;;;;5088027;28;20094;-82
2022/07/27 10:08:38;;;;;;;2.08;0.52;;;;;;;;;;5054103;28;20039;-82
2022/07/27 10:11:04;;;;;;;3.00;0.70;;;;;;;;;;5074472;28;20040;-81
2022/07/27 10:13:30;;;;;;;4.15;0.90;;;;;;;;;;5057171;28;20085;-82
2022/07/27 10:15:57;;;;;;;3.28;0.82;;;;;;;;;;5078246;28;20398;-81
2022/07/27 10:18:36;;;;;;;2.10;0.70;;;;;;;;;;5098625;28;20140;-83
2022/07/27 10:21:06;;;;;;;2.03;0.70;;;;;;;;;;5051845;28;20423;-80
2022/07/27 10:23:36;;;;;;;3.42;0.88;;;;;;;;;;5047843;28;20040;-81
2022/07/27 10:26:14;;;;;;;4.70;0.98;;;;;;;;;;5091369;28;20050;-83
2022/07/27 10:28:57;;;;;;;1.67;0.47;;;;;;;;;;5072696;28;20106;-82
2022/07/27 10:31:28;;;;;;;1.42;0.80;;;;;;;;;;5092900;28;20399;-83
2022/07/27 10:33:55;;;;;;;3.53;1.02;;;;;;;;;;5079571;28;20095;-80
2022/07/27 10:36:24;;;;;;;1.52;0.60;;;;;;;;;;5072300;28;20036;-80
2022/07/27 10:38:57;;;;;;;1.67;0.70;;;;;;;;;;5073599;28;20180;-84
2022/07/27 10:41:24;;;;;;;1.58;0.43;;;;;;;;;;5052653;28;20144;-81
2022/07/27 10:43:51;;;;;;;1.63;0.60;;;;;;;;;;5055361;28;20071;-88
2022/07/27 10:46:20;;;;;;;2.25;0.70;;;;;;;;;;5072134;28;20044;-82
2022/07/27 10:48:47;;;;;;;2.92;0.80;;;;;;;;;;5071026;28;20029;-82
2022/07/27 10:51:15;;;;;;;2.63;0.70;;;;;;;;;;5054714;28;20437;-84
2022/07/27 10:53:41;;;;;;;3.40;0.80;;;;;;;;;;5050624;28;20480;-89
2022/07/27 10:56:08;;;;;;;2.00;0.65;;;;;;;;;;5054488;28;20509;-85
2022/07/27 10:58:34;;;;;;;2.33;0.60;;;;;;;;;;5053650;28;20033;-90
2022/07/27 11:01:01;;;;;;;1.88;0.70;;;;;;;;;;5090053;28;20044;-84
2022/07/27 11:03:29;;;;;;;1.73;0.60;;;;;;;;;;5075120;28;20025;-90
2022/07/27 11:05:58;;;;;;;0.57;0.40;;;;;;;;;;5054151;28;20040;-82
2022/07/27 11:08:28;;;;;;;1.05;0.63;;;;;;;;;;5067794;28;20111;-81
2022/07/27 11:10:55;;;;;;;1.58;0.80;;;;;;;;;;5086485;28;20033;-81
2022/07/27 11:13:22;;;;;;;0.57;0.47;;;;;;;;;;5071864;28;20042;-83
2022/07/27 11:15:56;;;;;;;0.70;0.30;;;;;;;;;;5086961;28;20070;-86
2022/07/27 11:18:29;;;;;;;0.60;0.40;;;;;;;;;;5075001;28;20394;-81
2022/07/27 11:21:15;;;;;;;3.17;0.68;;;;;;;;;;5069576;28;20079;-82
2022/07/27 11:23:42;;;;;;;1.52;0.60;;;;;;;;;;5069010;28;20037;-82
2022/07/27 11:26:08;;;;;;;2.38;0.40;;;;;;;;;;5050826;28;20516;-86
2022/07/27 11:28:35;;;;;;;0.40;0.30;;;;;;;;;;5081081;28;20226;-80
2022/07/27 11:31:01;;;;;;;1.38;0.60;;;;;;;;;;5087182;28;20386;-92
2022/07/27 11:33:27;;;;;;;1.85;0.55;;;;;;;;;;5052538;28;20033;-81
2022/07/27 11:35:54;;;;;;;0.75;0.40;;;;;;;;;;5050603;28;20037;-80
2022/07/27 11:38:20;;;;;;;1.45;0.30;;;;;;;;;;5054518;28;20045;-80
2022/07/27 11:40:47;;;;;;;0.60;0.40;;;;;;;;;;5066150;28;20037;-80
2022/07/27 11:43:13;;;;;;;2.28;0.40;;;;;;;;;;5061442;28;20032;-81
2022/07/27 11:45:40;;;;;;;1.13;0.40;;;;;;;;;;5054175;28;20033;-80
2022/07/27 11:48:09;;;;;;;0.50;0.40;;;;;;;;;;5041039;28;20029;-80
2022/07/27 11:50:35;;;;;;;2.28;0.45;;;;;;;;;;5055060;28;20486;-83
2022/07/27 11:53:02;;;;;;;0.85;0.43;;;;;;;;;;5092806;28;20036;-82
2022/07/27 11:55:27;;;;;;;1.50;0.60;;;;;;;;;;5074722;28;20302;-82
2022/07/27 11:58:01;;;;;;;2.78;0.57;;;;;;;;;;5086249;28;20466;-82
2022/07/27 12:00:39;;;;;;;0.80;0.40;;;;;;;;;;5065599;28;20052;-82
2022/07/27 12:03:05;;;;;;;0.85;0.40;;;;;;;;;;5075225;28;20060;-82
2022/07/27 12:05:31;;;;;;;3.10;0.50;;;;;;;;;;5084872;28;20044;-82
2022/07/27 12:07:57;;;;;;;1.45;0.50;;;;;;;;;;5052442;28;20033;-82
2022/07/27 12:10:23;;;;;;;1.27;0.40;;;;;;;;;;5086149;28;20029;-81
2022/07/27 12:12:49;;;;;;;0.45;0.40;;;;;;;;;;5056090;28;20036;-87
2022/07/27 12:15:16;;;;;;;2.40;0.60;;;;;;;;;;5090725;28;20514;-82
2022/07/27 12:17:43;;;;;;;2.25;0.70;;;;;;;;;;5090776;28;20048;-83
2022/07/27 12:20:17;;;;;;;0.73;0.40;;;;;;;;;;5090339;28;20025;-81
2022/07/27 12:22:47;;;;;;;2.10;0.50;;;;;;;;;;5075303;28;20033;-81
2022/07/27 12:25:13;;;;;;;0.60;0.30;;;;;;;;;;5087514;28;20054;-81
2022/07/27 12:27:39;;;;;;;0.65;0.40;;;;;;;;;;5087081;28;20032;-82
2022/07/27 12:30:12;;;;;;;1.63;0.52;;;;;;;;;;5087743;28;20095;-81
2022/07/27 12:32:40;;;;;;;2.45;0.60;;;;;;;;;;5074627;28;20032;-81
2022/07/27 12:35:24;;;;;;;2.13;0.43;;;;;;;;;;5088488;28;20032;-81
2022/07/27 12:38:00;;;;;;;1.30;0.50;;;;;;;;;;5050254;28;20364;-82
2022/07/27 12:40:27;;;;;;;0.65;0.50;;;;;;;;;;5072763;28;20037;-81
2022/07/27 12:42:57;;;;;;;1.05;0.45;;;;;;;;;;5087484;28;20027;-82
2022/07/27 12:45:28;;;;;;;2.85;0.60;;;;;;;;;;5072295;28;20052;-81
2022/07/27 12:48:03;;;;;;;1.38;0.52;;;;;;;;;;5090582;28;20028;-81
2022/07/27 12:50:29;;;;;;;1.30;0.40;;;;;;;;;;5072317;28;20033;-81
2022/07/27 12:52:55;;;;;;;0.82;0.45;;;;;;;;;;5088360;28;20398;-82
2022/07/27 12:55:21;;;;;;;0.75;0.40;;;;;;;;;;5088373;28;20272;-83
2022/07/27 12:57:48;;;;;;;1.17;0.40;;;;;;;;;;5069627;28;20515;-81
2022/07/27 13:00:15;;;;;;;1.50;0.57;;;;;;;;;;5088886;28;20067;-73
2022/07/27 13:02:41;;;;;;;0.90;0.38;;;;;;;;;;5073876;28;20513;-74
2022/07/27 13:05:09;;;;;;;2.60;0.47;;;;;;;;;;5076118;28;20375;-74
2022/07/27 13:07:35;;;;;;;1.45;0.38;;;;;;;;;;5094519;28;20516;-73
2022/07/27 13:10:02;;;;;;;0.30;0.30;;;;;;;;;;5057321;28;20433;-74
2022/07/27 13:12:28;;;;;;;1.52;0.52;;;;;;;;;;5067805;28;20036;-73
2022/07/27 13:14:54;;;;;;;1.02;0.50;;;;;;;;;;5056070;28;20043;-73
2022/07/27 13:17:20;;;;;;;0.60;0.50;;;;;;;;;;5092640;28;20398;-78
2022/07/27 13:19:46;;;;;;;1.48;0.60;;;;;;;;;;5073764;28;20094;-74
2022/07/27 13:22:12;;;;;;;1.42;0.70;;;;;;;;;;5073453;28;20413;-73
2022/07/27 13:24:37;;;;;;;1.77;0.60;;;;;;;;;;5089444;28;20426;-74
2022/07/27 13:27:03;;;;;;;1.27;0.50;;;;;;;;;;5055579;28;20048;-73
2022/07/27 13:29:30;;;;;;;1.20;0.57;;;;;;;;;;5085627;28;20036;-73
2022/07/27 13:31:56;;;;;;;0.98;0.50;;;;;;;;;;5088963;28;20028;-73
2022/07/27 13:34:22;;;;;;;0.98;0.50;;;;;;;;;;5073339;28;20036;-75
2022/07/27 13:36:48;;;;;;;1.65;0.45;;;;;;;;;;5073409;28;20154;-74
2022/07/27 13:39:14;;;;;;;1.38;0.60;;;;;;;;;;5073195;28;20112;-73
2022/07/27 13:41:40;;;;;;;1.02;0.50;;;;;;;;;;5073473;28;20087;-73
2022/07/27 13:44:06;;;;;;;1.85;0.50;;;;;;;;;;5072556;28;20043;-72
2022/07/27 13:46:33;;;;;;;0.88;0.50;;;;;;;;;;5107747;28;20039;-74
2022/07/27 13:48:59;;;;;;;1.55;0.77;;;;;;;;;;5093043;28;20105;-73
2022/07/27 13:51:25;;;;;;;0.70;0.50;;;;;;;;;;5093868;28;20036;-73
2022/07/27 13:53:52;;;;;;;0.77;0.40;;;;;;;;;;5075022;28;20040;-72
2022/07/27 13:56:18;;;;;;;1.65;0.47;;;;;;;;;;5094066;28;20020;-74
2022/07/27 13:58:44;;;;;;;1.40;0.50;;;;;;;;;;5094140;28;20028;-74
2022/07/27 14:01:10;;;;;;;2.50;0.50;;;;;;;;;;5055582;28;20031;-73
2022/07/27 14:03:39;;;;;;;0.80;0.40;;;;;;;;;;5071114;28;20036;-73
2022/07/27 14:06:05;;;;;;;0.75;0.50;;;;;;;;;;5072768;28;20127;-77
2022/07/27 14:08:31;;;;;;;1.40;0.32;;;;;;;;;;5088082;28;20032;-77
2022/07/27 14:10:57;;;;;;;2.45;0.50;;;;;;;;;;5088160;28;20041;-77
2022/07/27 14:13:25;;;;;;;1.83;0.40;;;;;;;;;;5073026;28;20112;-78
2022/07/27 14:15:51;;;;;;;1.00;0.40;;;;;;;;;;5088293;28;20123;-77
2022/07/27 14:18:17;;;;;;;2.50;0.60;;;;;;;;;;5072722;28;20482;-77
2022/07/27 14:20:43;;;;;;;1.15;0.50;;;;;;;;;;5073775;28;20075;-78
2022/07/27 14:23:09;;;;;;;0.80;0.47;;;;;;;;;;5088505;28;20423;-80
2022/07/27 14:25:35;;;;;;;1.65;0.50;;;;;;;;;;5071557;28;20402;-78
2022/07/27 14:28:01;;;;;;;1.27;0.50;;;;;;;;;;5074020;28;20065;-77
2022/07/27 14:30:28;;;;;;;1.17;0.50;;;;;;;;;;5092027;28;20032;-77
2022/07/27 14:32:54;;;;;;;1.08;0.60;;;;;;;;;;5055307;28;20232;-77
2022/07/27 14:35:21;;;;;;;0.32;0.32;;;;;;;;;;5060700;28;20029;-77
2022/07/27 14:37:47;;;;;;;3.03;0.47;;;;;;;;;;5068759;28;20040;-78
2022/07/27 14:40:14;;;;;;;1.58;0.50;;;;;;;;;;5054543;28;20090;-78
2022/07/27 14:42:40;;;;;;;1.60;0.55;;;;;;;;;;5080791;28;20032;-77
2022/07/27 14:45:06;;;;;;;0.95;0.50;;;;;;;;;;5072713;28;20040;-78
2022/07/27 14:47:32;;;;;;;1.08;0.43;;;;;;;;;;5104178;28;20260;-77